sensor_id;sensor_type;location;lat;lon;timestamp;pressure;altitude;pressure_sealevel;temperature;humidity
34073;BME280;20346;52.702;16.886;2023-07-31T00:00:45;100346.40;;;18.39;60.62
34073;BME280;20346;52.702;16.886;2023-07-31T00:04:11;100339.86;;;18.37;60.78
34073;BME280;20346;52.702;16.886;2023-07-31T00:07:38;100334.52;;;18.32;60.97
34073;BME280;20346;52.702;16.886;2023-07-31T00:11:04;100331.61;;;18.24;61.05
34073;BME280;20346;52.702;16.886;2023-07-31T00:14:30;100335.65;;;18.18;61.07
34073;BME280;20346;52.702;16.886;2023-07-31T00:17:56;100345.09;;;18.11;61.15
34073;BME280;20346;52.702;16.886;2023-07-31T00:21:22;100346.04;;;18.06;61.17
34073;BME280;20346;52.702;16.886;2023-07-31T00:24:49;100355.92;;;18.04;61.32
34073;BME280;20346;52.702;16.886;2023-07-31T00:28:15;100356.07;;;18.01;61.36
34073;BME280;20346;52.702;16.886;2023-07-31T00:31:41;100359.05;;;17.97;61.41
34073;BME280;20346;52.702;16.886;2023-07-31T00:35:07;100356.10;;;17.90;61.48
34073;BME280;20346;52.702;16.886;2023-07-31T00:38:33;100359.42;;;17.86;61.60
34073;BME280;20346;52.702;16.886;2023-07-31T00:41:59;100355.83;;;17.81;61.70
34073;BME280;20346;52.702;16.886;2023-07-31T00:45:26;100354.96;;;17.78;61.88
34073;BME280;20346;52.702;16.886;2023-07-31T00:48:52;100356.64;;;17.72;61.80
34073;BME280;20346;52.702;16.886;2023-07-31T00:52:18;100358.88;;;17.69;61.85
34073;BME280;20346;52.702;16.886;2023-07-31T00:55:45;100357.73;;;17.64;61.98
34073;BME280;20346;52.702;16.886;2023-07-31T00:59:11;100353.65;;;17.59;62.16
34073;BME280;20346;52.702;16.886;2023-07-31T01:02:37;100359.95;;;17.54;62.07
34073;BME280;20346;52.702;16.886;2023-07-31T01:09:37;100354.40;;;17.47;62.36
34073;BME280;20346;52.702;16.886;2023-07-31T01:13:01;100352.80;;;17.47;62.29
34073;BME280;20346;52.702;16.886;2023-07-31T01:16:28;100353.94;;;17.42;62.42
34073;BME280;20346;52.702;16.886;2023-07-31T01:19:55;100349.41;;;17.38;62.45
34073;BME280;20346;52.702;16.886;2023-07-31T01:27:15;100352.66;;;17.32;62.63
34073;BME280;20346;52.702;16.886;2023-07-31T01:30:44;100350.77;;;17.29;62.79
34073;BME280;20346;52.702;16.886;2023-07-31T01:34:07;100348.17;;;17.25;62.79
34073;BME280;20346;52.702;16.886;2023-07-31T01:37:33;100341.56;;;17.24;62.83
34073;BME280;20346;52.702;16.886;2023-07-31T01:40:59;100341.86;;;17.21;62.82
34073;BME280;20346;52.702;16.886;2023-07-31T01:44:26;100341.27;;;17.19;62.97
34073;BME280;20346;52.702;16.886;2023-07-31T01:47:52;100340.70;;;17.13;62.99
34073;BME280;20346;52.702;16.886;2023-07-31T01:51:18;100337.64;;;17.08;63.13
34073;BME280;20346;52.702;16.886;2023-07-31T01:54:45;100337.48;;;17.04;63.11
34073;BME280;20346;52.702;16.886;2023-07-31T01:58:11;100343.83;;;17.03;63.28
34073;BME280;20346;52.702;16.886;2023-07-31T02:01:38;100345.59;;;16.98;63.23
34073;BME280;20346;52.702;16.886;2023-07-31T02:05:04;100346.80;;;16.95;63.29
34073;BME280;20346;52.702;16.886;2023-07-31T02:08:30;100348.67;;;16.92;63.41
34073;BME280;20346;52.702;16.886;2023-07-31T02:11:56;100348.23;;;16.90;63.36
34073;BME280;20346;52.702;16.886;2023-07-31T02:15:23;100346.19;;;16.89;63.56
34073;BME280;20346;52.702;16.886;2023-07-31T02:18:49;100346.95;;;16.88;63.54
34073;BME280;20346;52.702;16.886;2023-07-31T02:22:16;100349.44;;;16.86;63.58
34073;BME280;20346;52.702;16.886;2023-07-31T02:25:42;100342.84;;;16.86;63.57
34073;BME280;20346;52.702;16.886;2023-07-31T02:29:08;100346.94;;;16.84;63.66
34073;BME280;20346;52.702;16.886;2023-07-31T02:32:35;100345.77;;;16.83;63.70
34073;BME280;20346;52.702;16.886;2023-07-31T02:36:01;100342.59;;;16.81;63.76
34073;BME280;20346;52.702;16.886;2023-07-31T02:39:27;100337.18;;;16.77;63.74
34073;BME280;20346;52.702;16.886;2023-07-31T02:42:54;100335.04;;;16.75;63.78
34073;BME280;20346;52.702;16.886;2023-07-31T02:46:20;100338.13;;;16.72;63.78
34073;BME280;20346;52.702;16.886;2023-07-31T02:49:46;100336.99;;;16.66;63.99
34073;BME280;20346;52.702;16.886;2023-07-31T02:53:12;100340.67;;;16.66;63.98
34073;BME280;20346;52.702;16.886;2023-07-31T02:56:39;100342.39;;;16.66;64.02
34073;BME280;20346;52.702;16.886;2023-07-31T03:00:05;100345.19;;;16.66;64.01
34073;BME280;20346;52.702;16.886;2023-07-31T03:03:31;100343.67;;;16.64;64.10
34073;BME280;20346;52.702;16.886;2023-07-31T03:06:58;100343.43;;;16.62;64.18
34073;BME280;20346;52.702;16.886;2023-07-31T03:10:24;100344.55;;;16.61;64.21
34073;BME280;20346;52.702;16.886;2023-07-31T03:13:50;100346.09;;;16.61;64.36
34073;BME280;20346;52.702;16.886;2023-07-31T03:17:17;100348.73;;;16.61;64.37
34073;BME280;20346;52.702;16.886;2023-07-31T03:20:43;100346.98;;;16.61;64.45
34073;BME280;20346;52.702;16.886;2023-07-31T03:24:09;100347.27;;;16.62;64.51
34073;BME280;20346;52.702;16.886;2023-07-31T03:27:36;100346.02;;;16.62;64.42
34073;BME280;20346;52.702;16.886;2023-07-31T03:31:02;100344.61;;;16.63;64.50
34073;BME280;20346;52.702;16.886;2023-07-31T03:34:28;100339.41;;;16.63;64.65
34073;BME280;20346;52.702;16.886;2023-07-31T03:37:55;100348.61;;;16.63;64.55
34073;BME280;20346;52.702;16.886;2023-07-31T03:41:21;100351.83;;;16.65;64.72
34073;BME280;20346;52.702;16.886;2023-07-31T03:44:47;100357.89;;;16.66;64.79
34073;BME280;20346;52.702;16.886;2023-07-31T03:48:13;100353.89;;;16.66;64.70
34073;BME280;20346;52.702;16.886;2023-07-31T03:51:39;100363.55;;;16.63;64.85
34073;BME280;20346;52.702;16.886;2023-07-31T03:55:05;100365.25;;;16.64;64.86
34073;BME280;20346;52.702;16.886;2023-07-31T03:58:31;100361.98;;;16.67;64.92
34073;BME280;20346;52.702;16.886;2023-07-31T04:01:58;100355.20;;;16.67;64.97
34073;BME280;20346;52.702;16.886;2023-07-31T04:05:24;100357.88;;;16.73;64.95
34073;BME280;20346;52.702;16.886;2023-07-31T04:08:51;100364.79;;;16.78;64.92
34073;BME280;20346;52.702;16.886;2023-07-31T04:12:17;100360.52;;;16.84;65.10
34073;BME280;20346;52.702;16.886;2023-07-31T04:15:47;100356.15;;;16.88;65.07
34073;BME280;20346;52.702;16.886;2023-07-31T04:19:10;100347.33;;;16.95;65.19
34073;BME280;20346;52.702;16.886;2023-07-31T04:22:36;100352.50;;;17.00;65.21
34073;BME280;20346;52.702;16.886;2023-07-31T04:26:03;100360.91;;;17.06;65.33
34073;BME280;20346;52.702;16.886;2023-07-31T04:29:29;100361.67;;;17.08;65.33
34073;BME280;20346;52.702;16.886;2023-07-31T04:32:56;100361.04;;;17.11;65.39
34073;BME280;20346;52.702;16.886;2023-07-31T04:36:22;100362.85;;;17.16;65.32
34073;BME280;20346;52.702;16.886;2023-07-31T04:39:49;100356.90;;;17.20;65.36
34073;BME280;20346;52.702;16.886;2023-07-31T04:43:15;100354.08;;;17.25;65.41
34073;BME280;20346;52.702;16.886;2023-07-31T04:46:41;100354.84;;;17.27;65.45
34073;BME280;20346;52.702;16.886;2023-07-31T04:50:08;100351.90;;;17.30;65.48
34073;BME280;20346;52.702;16.886;2023-07-31T04:53:04;100357.20;;;17.36;65.56
34073;BME280;20346;52.702;16.886;2023-07-31T04:56:30;100354.38;;;17.47;65.53
34073;BME280;20346;52.702;16.886;2023-07-31T04:59:56;100351.06;;;17.62;65.63
34073;BME280;20346;52.702;16.886;2023-07-31T05:03:22;100349.84;;;17.79;65.64
34073;BME280;20346;52.702;16.886;2023-07-31T05:06:49;100353.42;;;17.95;65.61
34073;BME280;20346;52.702;16.886;2023-07-31T05:10:15;100351.39;;;18.07;65.74
34073;BME280;20346;52.702;16.886;2023-07-31T05:13:42;100343.22;;;18.20;65.60
34073;BME280;20346;52.702;16.886;2023-07-31T05:19:06;100335.91;;;18.46;65.52
34073;BME280;20346;52.702;16.886;2023-07-31T05:21:46;100332.18;;;18.61;65.50
34073;BME280;20346;52.702;16.886;2023-07-31T05:24:26;100325.45;;;18.72;65.38
34073;BME280;20346;52.702;16.886;2023-07-31T05:27:53;100322.67;;;18.84;65.57
34073;BME280;20346;52.702;16.886;2023-07-31T05:31:22;100323.55;;;19.00;65.59
34073;BME280;20346;52.702;16.886;2023-07-31T05:34:46;100316.36;;;19.37;65.71
34073;BME280;20346;52.702;16.886;2023-07-31T05:38:12;100320.15;;;19.60;65.39
34073;BME280;20346;52.702;16.886;2023-07-31T05:41:09;100327.55;;;19.71;65.17
34073;BME280;20346;52.702;16.886;2023-07-31T05:44:35;100327.13;;;19.72;65.23
34073;BME280;20346;52.702;16.886;2023-07-31T05:48:01;100329.33;;;19.79;65.22
34073;BME280;20346;52.702;16.886;2023-07-31T05:50:59;100329.54;;;19.84;65.09
34073;BME280;20346;52.702;16.886;2023-07-31T05:54:26;100328.37;;;19.95;65.13
34073;BME280;20346;52.702;16.886;2023-07-31T05:57:53;100325.05;;;20.06;65.00
34073;BME280;20346;52.702;16.886;2023-07-31T06:01:19;100326.39;;;20.25;65.04
34073;BME280;20346;52.702;16.886;2023-07-31T06:04:46;100323.86;;;20.40;64.93
34073;BME280;20346;52.702;16.886;2023-07-31T06:08:12;100321.77;;;20.52;64.88
34073;BME280;20346;52.702;16.886;2023-07-31T06:11:42;100321.98;;;20.57;64.72
34073;BME280;20346;52.702;16.886;2023-07-31T06:15:08;100322.08;;;20.58;64.72
34073;BME280;20346;52.702;16.886;2023-07-31T06:18:35;100323.58;;;20.56;64.73
34073;BME280;20346;52.702;16.886;2023-07-31T06:22:01;100317.52;;;20.52;64.68
34073;BME280;20346;52.702;16.886;2023-07-31T06:25:31;100317.05;;;20.52;64.65
34073;BME280;20346;52.702;16.886;2023-07-31T06:28:54;100320.09;;;20.50;64.59
34073;BME280;20346;52.702;16.886;2023-07-31T06:32:21;100313.79;;;20.53;64.54
34073;BME280;20346;52.702;16.886;2023-07-31T06:35:47;100312.39;;;20.62;64.56
34073;BME280;20346;52.702;16.886;2023-07-31T06:39:14;100310.81;;;20.78;64.49
34073;BME280;20346;52.702;16.886;2023-07-31T06:42:40;100305.14;;;20.93;64.38
34073;BME280;20346;52.702;16.886;2023-07-31T06:46:07;100299.91;;;21.11;64.41
34073;BME280;20346;52.702;16.886;2023-07-31T06:49:33;100302.79;;;21.66;64.43
34073;BME280;20346;52.702;16.886;2023-07-31T06:53:00;100296.74;;;22.08;63.95
34073;BME280;20346;52.702;16.886;2023-07-31T06:56:26;100297.80;;;22.13;63.94
34073;BME280;20346;52.702;16.886;2023-07-31T06:59:53;100298.85;;;22.08;63.85
34073;BME280;20346;52.702;16.886;2023-07-31T07:03:19;100295.15;;;21.98;63.83
34073;BME280;20346;52.702;16.886;2023-07-31T07:06:47;100298.71;;;21.97;63.87
34073;BME280;20346;52.702;16.886;2023-07-31T07:10:14;100295.99;;;21.96;63.74
34073;BME280;20346;52.702;16.886;2023-07-31T07:13:40;100294.52;;;21.97;63.91
34073;BME280;20346;52.702;16.886;2023-07-31T07:17:07;100298.01;;;22.03;63.60
34073;BME280;20346;52.702;16.886;2023-07-31T07:20:34;100298.06;;;22.15;63.46
34073;BME280;20346;52.702;16.886;2023-07-31T07:24:00;100299.90;;;22.08;63.22
34073;BME280;20346;52.702;16.886;2023-07-31T07:27:27;100294.83;;;22.08;63.19
34073;BME280;20346;52.702;16.886;2023-07-31T07:30:53;100288.30;;;22.34;63.10
34073;BME280;20346;52.702;16.886;2023-07-31T07:34:22;100291.34;;;22.50;62.81
34073;BME280;20346;52.702;16.886;2023-07-31T07:37:48;100293.15;;;22.44;62.52
34073;BME280;20346;52.702;16.886;2023-07-31T07:41:13;100295.64;;;22.34;62.55
34073;BME280;20346;52.702;16.886;2023-07-31T07:44:39;100290.91;;;22.27;62.67
34073;BME280;20346;52.702;16.886;2023-07-31T07:48:05;100296.58;;;22.13;62.57
34073;BME280;20346;52.702;16.886;2023-07-31T07:51:32;100292.81;;;22.07;62.62
34073;BME280;20346;52.702;16.886;2023-07-31T07:54:59;100295.02;;;21.92;62.38
34073;BME280;20346;52.702;16.886;2023-07-31T07:58:25;100293.70;;;21.75;62.41
34073;BME280;20346;52.702;16.886;2023-07-31T08:01:52;100299.13;;;21.60;62.37
34073;BME280;20346;52.702;16.886;2023-07-31T08:05:18;100294.55;;;21.47;62.37
34073;BME280;20346;52.702;16.886;2023-07-31T08:08:45;100298.48;;;21.41;62.50
34073;BME280;20346;52.702;16.886;2023-07-31T08:12:13;100300.92;;;21.36;62.40
34073;BME280;20346;52.702;16.886;2023-07-31T08:15:43;100308.54;;;21.25;62.48
34073;BME280;20346;52.702;16.886;2023-07-31T08:19:09;100309.40;;;21.13;62.43
34073;BME280;20346;52.702;16.886;2023-07-31T08:22:36;100305.73;;;21.13;62.56
34073;BME280;20346;52.702;16.886;2023-07-31T08:26:02;100306.25;;;21.22;62.42
34073;BME280;20346;52.702;16.886;2023-07-31T08:29:29;100308.80;;;21.21;62.37
34073;BME280;20346;52.702;16.886;2023-07-31T08:32:55;100306.73;;;21.17;62.34
34073;BME280;20346;52.702;16.886;2023-07-31T08:36:22;100308.15;;;21.14;62.35
34073;BME280;20346;52.702;16.886;2023-07-31T08:39:48;100306.51;;;21.15;62.38
34073;BME280;20346;52.702;16.886;2023-07-31T08:43:14;100304.52;;;21.10;62.35
34073;BME280;20346;52.702;16.886;2023-07-31T08:46:41;100303.79;;;21.03;62.34
34073;BME280;20346;52.702;16.886;2023-07-31T08:50:08;100295.43;;;20.94;62.33
34073;BME280;20346;52.702;16.886;2023-07-31T08:53:34;100298.09;;;20.82;62.17
34073;BME280;20346;52.702;16.886;2023-07-31T08:57:01;100295.61;;;20.78;62.45
34073;BME280;20346;52.702;16.886;2023-07-31T09:00:27;100293.09;;;20.76;62.23
34073;BME280;20346;52.702;16.886;2023-07-31T09:03:54;100290.02;;;20.72;62.32
34073;BME280;20346;52.702;16.886;2023-07-31T09:07:20;100280.49;;;20.76;62.41
34073;BME280;20346;52.702;16.886;2023-07-31T09:10:47;100277.34;;;20.80;62.33
34073;BME280;20346;52.702;16.886;2023-07-31T09:14:13;100279.67;;;20.85;62.11
34073;BME280;20346;52.702;16.886;2023-07-31T09:17:40;100278.98;;;20.96;62.12
34073;BME280;20346;52.702;16.886;2023-07-31T09:21:06;100279.31;;;21.07;62.18
34073;BME280;20346;52.702;16.886;2023-07-31T09:24:33;100273.88;;;21.07;61.86
34073;BME280;20346;52.702;16.886;2023-07-31T09:28:00;100280.34;;;21.05;61.98
34073;BME280;20346;52.702;16.886;2023-07-31T09:31:39;100275.83;;;20.96;61.83
34073;BME280;20346;52.702;16.886;2023-07-31T09:35:28;100278.33;;;20.90;62.09
34073;BME280;20346;52.702;16.886;2023-07-31T09:38:33;100280.39;;;20.85;61.96
34073;BME280;20346;52.702;16.886;2023-07-31T09:42:04;100293.95;;;20.68;62.11
34073;BME280;20346;52.702;16.886;2023-07-31T09:45:46;100297.90;;;20.41;62.17
34073;BME280;20346;52.702;16.886;2023-07-31T09:49:13;100297.50;;;20.19;62.46
34073;BME280;20346;52.702;16.886;2023-07-31T09:52:39;100298.83;;;20.09;62.60
34073;BME280;20346;52.702;16.886;2023-07-31T09:56:05;100299.67;;;20.06;62.69
34073;BME280;20346;52.702;16.886;2023-07-31T09:59:32;100297.08;;;20.03;62.87
34073;BME280;20346;52.702;16.886;2023-07-31T10:02:59;100290.70;;;19.93;62.73
34073;BME280;20346;52.702;16.886;2023-07-31T10:06:25;100286.69;;;19.81;62.80
34073;BME280;20346;52.702;16.886;2023-07-31T10:09:51;100287.77;;;19.75;62.93
34073;BME280;20346;52.702;16.886;2023-07-31T10:13:19;100281.92;;;19.81;63.23
34073;BME280;20346;52.702;16.886;2023-07-31T10:16:46;100277.63;;;19.89;63.17
34073;BME280;20346;52.702;16.886;2023-07-31T10:20:14;100272.39;;;20.00;63.22
34073;BME280;20346;52.702;16.886;2023-07-31T10:23:40;100265.38;;;20.12;63.26
34073;BME280;20346;52.702;16.886;2023-07-31T10:27:06;100263.15;;;20.17;63.25
34073;BME280;20346;52.702;16.886;2023-07-31T10:30:33;100259.64;;;20.14;63.27
34073;BME280;20346;52.702;16.886;2023-07-31T10:33:59;100260.90;;;20.11;63.20
34073;BME280;20346;52.702;16.886;2023-07-31T10:37:28;100257.14;;;20.06;63.37
34073;BME280;20346;52.702;16.886;2023-07-31T10:40:53;100255.90;;;20.04;63.43
34073;BME280;20346;52.702;16.886;2023-07-31T10:44:20;100255.56;;;20.01;63.46
34073;BME280;20346;52.702;16.886;2023-07-31T10:47:46;100253.79;;;20.04;63.83
34073;BME280;20346;52.702;16.886;2023-07-31T10:51:13;100253.33;;;20.06;63.68
34073;BME280;20346;52.702;16.886;2023-07-31T10:54:39;100247.15;;;20.07;63.91
34073;BME280;20346;52.702;16.886;2023-07-31T10:58:07;100244.52;;;20.04;63.96
34073;BME280;20346;52.702;16.886;2023-07-31T11:05:07;100238.48;;;20.00;64.02
34073;BME280;20346;52.702;16.886;2023-07-31T11:08:34;100236.05;;;20.02;64.25
34073;BME280;20346;52.702;16.886;2023-07-31T11:12:00;100234.01;;;20.04;64.21
34073;BME280;20346;52.702;16.886;2023-07-31T11:15:35;100226.58;;;20.08;64.09
34073;BME280;20346;52.702;16.886;2023-07-31T11:19:01;100221.02;;;20.13;64.21
34073;BME280;20346;52.702;16.886;2023-07-31T11:22:28;100221.52;;;20.17;64.33
34073;BME280;20346;52.702;16.886;2023-07-31T11:25:57;100218.34;;;20.17;64.43
34073;BME280;20346;52.702;16.886;2023-07-31T11:29:21;100213.65;;;20.19;64.44
34073;BME280;20346;52.702;16.886;2023-07-31T11:32:56;100209.21;;;20.18;64.45
34073;BME280;20346;52.702;16.886;2023-07-31T11:35:25;100208.27;;;20.13;64.30
34073;BME280;20346;52.702;16.886;2023-07-31T11:37:59;100209.69;;;20.10;64.34
34073;BME280;20346;52.702;16.886;2023-07-31T11:40:32;100209.13;;;20.07;64.46
34073;BME280;20346;52.702;16.886;2023-07-31T11:43:59;100203.52;;;20.16;64.54
34073;BME280;20346;52.702;16.886;2023-07-31T11:46:35;100202.98;;;20.19;64.48
34073;BME280;20346;52.702;16.886;2023-07-31T11:49:09;100202.34;;;20.15;64.30
34073;BME280;20346;52.702;16.886;2023-07-31T11:52:37;100204.17;;;20.06;64.31
34073;BME280;20346;52.702;16.886;2023-07-31T11:56:03;100197.15;;;19.98;64.59
34073;BME280;20346;52.702;16.886;2023-07-31T11:58:36;100192.55;;;19.95;64.58
34073;BME280;20346;52.702;16.886;2023-07-31T12:01:10;100194.51;;;19.95;64.64
34073;BME280;20346;52.702;16.886;2023-07-31T12:03:50;100188.60;;;19.94;64.72
34073;BME280;20346;52.702;16.886;2023-07-31T12:06:34;100184.83;;;19.99;64.87
34073;BME280;20346;52.702;16.886;2023-07-31T12:12:19;100180.73;;;20.14;64.65
34073;BME280;20346;52.702;16.886;2023-07-31T12:15:13;100180.16;;;20.23;64.66
34073;BME280;20346;52.702;16.886;2023-07-31T12:17:47;100173.97;;;20.27;64.49
34073;BME280;20346;52.702;16.886;2023-07-31T12:23:27;100169.03;;;20.30;64.70
34073;BME280;20346;52.702;16.886;2023-07-31T12:26:17;100171.78;;;20.25;64.68
34073;BME280;20346;52.702;16.886;2023-07-31T12:31:41;100166.57;;;20.05;64.74
34073;BME280;20346;52.702;16.886;2023-07-31T12:34:23;100167.86;;;20.01;64.84
34073;BME280;20346;52.702;16.886;2023-07-31T12:37:05;100167.41;;;20.06;65.01
34073;BME280;20346;52.702;16.886;2023-07-31T12:39:53;100164.42;;;20.11;65.08
34073;BME280;20346;52.702;16.886;2023-07-31T12:42:33;100164.17;;;20.13;65.04
34073;BME280;20346;52.702;16.886;2023-07-31T12:48:52;100163.89;;;20.06;65.00
34073;BME280;20346;52.702;16.886;2023-07-31T12:52:21;100162.27;;;19.98;65.12
34073;BME280;20346;52.702;16.886;2023-07-31T12:55:02;100158.08;;;20.01;65.26
34073;BME280;20346;52.702;16.886;2023-07-31T12:58:29;100155.58;;;20.05;65.33
34073;BME280;20346;52.702;16.886;2023-07-31T13:01:56;100153.54;;;19.98;65.11
34073;BME280;20346;52.702;16.886;2023-07-31T13:05:24;100152.60;;;19.85;65.21
34073;BME280;20346;52.702;16.886;2023-07-31T13:08:08;100149.45;;;19.79;65.39
34073;BME280;20346;52.702;16.886;2023-07-31T13:11:34;100143.27;;;19.80;65.52
34073;BME280;20346;52.702;16.886;2023-07-31T13:15:01;100140.88;;;19.76;65.62
34073;BME280;20346;52.702;16.886;2023-07-31T13:18:27;100137.56;;;19.76;65.59
34073;BME280;20346;52.702;16.886;2023-07-31T13:21:53;100132.17;;;19.82;65.82
34073;BME280;20346;52.702;16.886;2023-07-31T13:25:20;100128.33;;;19.91;65.86
34073;BME280;20346;52.702;16.886;2023-07-31T13:28:46;100125.46;;;20.08;65.83
34073;BME280;20346;52.702;16.886;2023-07-31T13:32:13;100118.17;;;20.23;65.85
34073;BME280;20346;52.702;16.886;2023-07-31T13:35:39;100119.41;;;20.36;65.81
34073;BME280;20346;52.702;16.886;2023-07-31T13:39:06;100119.47;;;20.44;65.63
34073;BME280;20346;52.702;16.886;2023-07-31T13:42:35;100113.58;;;20.43;65.68
34073;BME280;20346;52.702;16.886;2023-07-31T13:46:01;100105.27;;;20.50;65.70
34073;BME280;20346;52.702;16.886;2023-07-31T13:49:33;100102.23;;;20.64;65.66
34073;BME280;20346;52.702;16.886;2023-07-31T13:52:59;100098.86;;;20.77;65.66
34073;BME280;20346;52.702;16.886;2023-07-31T13:56:26;100101.17;;;20.93;65.71
34073;BME280;20346;52.702;16.886;2023-07-31T13:59:53;100102.16;;;20.99;65.49
34073;BME280;20346;52.702;16.886;2023-07-31T14:03:20;100100.23;;;20.99;65.53
34073;BME280;20346;52.702;16.886;2023-07-31T14:06:46;100100.98;;;21.03;65.67
34073;BME280;20346;52.702;16.886;2023-07-31T14:10:13;100095.20;;;21.06;65.48
34073;BME280;20346;52.702;16.886;2023-07-31T14:13:39;100089.68;;;21.09;65.51
34073;BME280;20346;52.702;16.886;2023-07-31T14:17:06;100085.16;;;21.11;65.50
34073;BME280;20346;52.702;16.886;2023-07-31T14:20:33;100088.40;;;21.10;65.44
34073;BME280;20346;52.702;16.886;2023-07-31T14:23:59;100086.30;;;21.13;65.57
34073;BME280;20346;52.702;16.886;2023-07-31T14:27:26;100083.41;;;21.14;65.37
34073;BME280;20346;52.702;16.886;2023-07-31T14:30:52;100089.65;;;21.15;65.39
34073;BME280;20346;52.702;16.886;2023-07-31T14:34:19;100081.68;;;21.22;65.58
34073;BME280;20346;52.702;16.886;2023-07-31T14:37:45;100084.53;;;21.26;65.37
34073;BME280;20346;52.702;16.886;2023-07-31T14:41:12;100082.41;;;21.27;65.41
34073;BME280;20346;52.702;16.886;2023-07-31T14:44:38;100083.77;;;21.32;65.40
34073;BME280;20346;52.702;16.886;2023-07-31T14:48:05;100073.37;;;21.35;65.45
34073;BME280;20346;52.702;16.886;2023-07-31T14:51:31;100062.21;;;21.42;65.40
34073;BME280;20346;52.702;16.886;2023-07-31T14:54:58;100058.90;;;21.49;65.50
34073;BME280;20346;52.702;16.886;2023-07-31T14:58:25;100056.63;;;21.59;65.34
34073;BME280;20346;52.702;16.886;2023-07-31T15:01:51;100053.18;;;21.61;65.18
34073;BME280;20346;52.702;16.886;2023-07-31T15:05:17;100054.86;;;21.59;65.17
34073;BME280;20346;52.702;16.886;2023-07-31T15:08:44;100058.40;;;21.54;65.22
34073;BME280;20346;52.702;16.886;2023-07-31T15:12:11;100058.05;;;21.52;65.16
34073;BME280;20346;52.702;16.886;2023-07-31T15:15:37;100054.65;;;21.42;65.07
34073;BME280;20346;52.702;16.886;2023-07-31T15:19:06;100047.58;;;21.33;65.11
34073;BME280;20346;52.702;16.886;2023-07-31T15:22:32;100043.22;;;21.35;65.08
34073;BME280;20346;52.702;16.886;2023-07-31T15:25:58;100036.96;;;21.37;65.17
34073;BME280;20346;52.702;16.886;2023-07-31T15:29:25;100032.36;;;21.37;64.98
34073;BME280;20346;52.702;16.886;2023-07-31T15:32:52;100036.73;;;21.35;64.96
34073;BME280;20346;52.702;16.886;2023-07-31T15:36:19;100035.89;;;21.30;64.96
34073;BME280;20346;52.702;16.886;2023-07-31T15:39:46;100031.79;;;21.29;65.10
34073;BME280;20346;52.702;16.886;2023-07-31T15:43:12;100026.30;;;21.27;65.06
34073;BME280;20346;52.702;16.886;2023-07-31T15:46:39;100019.27;;;21.22;65.00
34073;BME280;20346;52.702;16.886;2023-07-31T15:50:06;100013.46;;;21.17;65.03
34073;BME280;20346;52.702;16.886;2023-07-31T15:53:34;100022.23;;;21.14;64.93
34073;BME280;20346;52.702;16.886;2023-07-31T15:57:01;100015.50;;;21.15;64.85
34073;BME280;20346;52.702;16.886;2023-07-31T16:00:27;100014.08;;;21.18;64.88
34073;BME280;20346;52.702;16.886;2023-07-31T16:03:54;100004.80;;;21.18;64.62
34073;BME280;20346;52.702;16.886;2023-07-31T16:07:20;100004.59;;;21.16;64.54
34073;BME280;20346;52.702;16.886;2023-07-31T16:10:47;100001.08;;;21.13;64.61
34073;BME280;20346;52.702;16.886;2023-07-31T16:14:13;99995.34;;;21.15;64.48
34073;BME280;20346;52.702;16.886;2023-07-31T16:17:39;99990.75;;;21.18;64.44
34073;BME280;20346;52.702;16.886;2023-07-31T16:21:06;99989.23;;;21.20;64.32
34073;BME280;20346;52.702;16.886;2023-07-31T16:24:32;99989.30;;;21.22;64.38
34073;BME280;20346;52.702;16.886;2023-07-31T16:27:59;99993.50;;;21.27;64.28
34073;BME280;20346;52.702;16.886;2023-07-31T16:31:25;99991.69;;;21.30;64.11
34073;BME280;20346;52.702;16.886;2023-07-31T16:34:54;99991.94;;;21.31;64.13
34073;BME280;20346;52.702;16.886;2023-07-31T16:38:20;99994.84;;;21.35;64.16
34073;BME280;20346;52.702;16.886;2023-07-31T16:41:46;99995.70;;;21.35;63.97
34073;BME280;20346;52.702;16.886;2023-07-31T16:45:13;99996.44;;;21.34;63.93
34073;BME280;20346;52.702;16.886;2023-07-31T16:48:39;99989.17;;;21.33;63.83
34073;BME280;20346;52.702;16.886;2023-07-31T16:52:06;99984.90;;;21.32;63.81
34073;BME280;20346;52.702;16.886;2023-07-31T16:54:42;99982.33;;;21.33;63.65
34073;BME280;20346;52.702;16.886;2023-07-31T16:58:09;99975.82;;;21.36;63.67
34073;BME280;20346;52.702;16.886;2023-07-31T17:01:35;99970.73;;;21.36;63.60
34073;BME280;20346;52.702;16.886;2023-07-31T17:04:18;99961.90;;;21.32;63.35
34073;BME280;20346;52.702;16.886;2023-07-31T17:06:51;99966.70;;;21.27;63.39
34073;BME280;20346;52.702;16.886;2023-07-31T17:12:13;99973.69;;;21.17;63.54
34073;BME280;20346;52.702;16.886;2023-07-31T17:15:39;99976.71;;;21.13;63.34
34073;BME280;20346;52.702;16.886;2023-07-31T17:19:06;99974.95;;;21.11;63.47
34073;BME280;20346;52.702;16.886;2023-07-31T17:22:32;99977.14;;;21.09;63.48
34073;BME280;20346;52.702;16.886;2023-07-31T17:25:58;99982.76;;;21.07;63.41
34073;BME280;20346;52.702;16.886;2023-07-31T17:29:31;99986.44;;;21.07;63.42
34073;BME280;20346;52.702;16.886;2023-07-31T17:32:54;99986.39;;;21.08;63.32
34073;BME280;20346;52.702;16.886;2023-07-31T17:36:20;99980.79;;;21.08;63.39
34073;BME280;20346;52.702;16.886;2023-07-31T17:39:53;99978.47;;;21.08;63.30
34073;BME280;20346;52.702;16.886;2023-07-31T17:43:19;99977.95;;;21.08;63.31
34073;BME280;20346;52.702;16.886;2023-07-31T17:46:48;99984.36;;;21.04;63.29
34073;BME280;20346;52.702;16.886;2023-07-31T17:50:14;99983.05;;;21.01;63.13